Time;durP1;ratioP1;P1;durP2;ratioP2;P2;SDS_P1;SDS_P2;PMS_P1;PMS_P2;Temp;Humidity;BMP_temperature;BMP_pressure;BME280_temperature;BME280_humidity;BME280_pressure;Samples;Min_cycle;Max_cycle;Signal;HPM_P1;HPM_P2
2023/04/27 00:12:53;;;;;;;;;;;;;;;21.98;42.67;100485.34;41474063;28;20353;-71
2023/04/27 00:32:55;;;;;;;;;;;;;;;21.96;42.49;100485.47;41396327;28;19947;-71
2023/04/27 00:52:56;;;;;;;;;;;;;;;21.94;42.47;100491.81;41392823;28;19925;-71
2023/04/27 01:12:56;;;;;;;;;;;;;;;21.89;42.80;100486.91;41367682;28;20325;-72
2023/04/27 01:32:56;;;;;;;;;;;;;;;21.83;42.64;100497.94;41373873;28;20270;-74
2023/04/27 01:52:57;;;;;;;;;;;;;;;21.81;42.55;100507.75;41420774;28;19924;-71
2023/04/27 02:12:57;;;;;;;;;;;;;;;21.74;42.47;100517.94;41492763;28;20014;-71
2023/04/27 02:33:00;;;;;;;;;;;;;;;21.74;42.36;100528.50;41420987;28;19999;-70
2023/04/27 02:53:01;;;;;;;;;;;;;;;21.72;42.09;100543.56;41498868;28;20392;-70
2023/04/27 03:13:01;;;;;;;;;;;;;;;21.68;42.22;100556.16;41511571;28;19921;-70
2023/04/27 03:33:03;;;;;;;;;;;;;;;21.65;42.06;100572.19;41571698;28;21150;-70
2023/04/27 03:53:03;;;;;;;;;;;;;;;21.69;42.03;100588.59;41541524;28;19956;-72
2023/04/27 04:13:03;;;;;;;;;;;;;;;21.66;42.28;100600.22;41553171;28;19970;-72
2023/04/27 04:33:04;;;;;;;;;;;;;;;21.68;42.97;100624.66;41503960;28;19925;-71
2023/04/27 04:53:05;;;;;;;;;;;;;;;21.78;44.50;100631.88;41473912;28;19929;-72
2023/04/27 05:13:06;;;;;;;;;;;;;;;21.73;43.25;100650.69;41465081;28;19929;-74
2023/04/27 05:33:06;;;;;;;;;;;;;;;21.69;42.13;100668.53;41527409;28;19925;-75
2023/04/27 05:53:06;;;;;;;;;;;;;;;21.68;41.22;100682.66;41525048;28;19925;-75
2023/04/27 06:13:08;;;;;;;;;;;;;;;21.74;42.48;100694.53;41517784;28;20386;-74
2023/04/27 06:33:08;;;;;;;;;;;;;;;21.82;42.44;100704.50;41483285;28;19928;-74
2023/04/27 06:53:09;;;;;;;;;;;;;;;21.84;43.05;100703.41;41492699;28;19925;-76
2023/04/27 07:13:09;;;;;;;;;;;;;;;21.87;42.82;100705.84;41541960;28;19949;-75
2023/04/27 07:33:09;;;;;;;;;;;;;;;21.90;42.80;100720.59;41543251;28;19932;-73
2023/04/27 07:53:10;;;;;;;;;;;;;;;21.94;42.76;100718.56;41491600;28;20020;-74
2023/04/27 08:13:10;;;;;;;;;;;;;;;21.97;43.54;100718.31;41475604;28;20366;-78
2023/04/27 08:33:11;;;;;;;;;;;;;;;22.01;43.02;100720.59;41578041;28;19925;-79
2023/04/27 08:53:18;;;;;;;;;;;;;;;22.05;42.97;100711.50;41534677;28;20439;-81
2023/04/27 09:13:20;;;;;;;;;;;;;;;22.11;42.48;100701.47;41464952;28;19921;-84
2023/04/27 09:33:24;;;;;;;;;;;;;;;22.12;42.86;100689.94;41496721;28;19932;-78
2023/04/27 09:53:28;;;;;;;;;;;;;;;22.12;42.13;100685.50;41602559;28;19922;-77
2023/04/27 10:13:30;;;;;;;;;;;;;;;22.20;42.52;100659.38;41560524;28;19921;-80
2023/04/27 10:33:41;;;;;;;;;;;;;;;22.30;42.61;100654.22;41522269;28;19949;-79
2023/04/27 10:53:41;;;;;;;;;;;;;;;22.37;40.14;100655.44;41485057;28;19929;-77
2023/04/27 11:13:48;;;;;;;;;;;;;;;22.37;36.67;100642.25;41573240;28;19921;-78
2023/04/27 11:33:48;;;;;;;;;;;;;;;22.46;36.76;100639.84;41574554;28;20015;-76
2023/04/27 11:53:50;;;;;;;;;;;;;;;22.29;29.45;100626.16;41582390;28;19936;-75
2023/04/27 12:13:51;;;;;;;;;;;;;;;22.51;32.50;100630.63;41563578;28;19929;-78
2023/04/27 12:33:52;;;;;;;;;;;;;;;22.64;33.07;100611.16;41625774;28;19929;-76
2023/04/27 12:53:53;;;;;;;;;;;;;;;22.82;34.05;100604.38;41634703;28;19947;-73
2023/04/27 13:13:53;;;;;;;;;;;;;;;22.92;33.07;100614.22;41487865;28;19997;-75
2023/04/27 13:34:00;;;;;;;;;;;;;;;23.03;32.65;100607.09;41584663;28;20056;-75
2023/04/27 13:54:00;;;;;;;;;;;;;;;23.08;32.58;100608.53;41571083;28;19925;-82
2023/04/27 14:14:00;;;;;;;;;;;;;;;23.11;32.88;100613.56;41516572;28;19921;-78
2023/04/27 14:34:01;;;;;;;;;;;;;;;23.29;33.57;100612.06;41495620;28;19929;-79
2023/04/27 14:54:03;;;;;;;;;;;;;;;23.52;32.26;100616.41;41522933;28;20411;-77
2023/04/27 15:14:04;;;;;;;;;;;;;;;24.03;30.04;100620.06;41590554;28;20280;-80
2023/04/27 15:34:04;;;;;;;;;;;;;;;24.68;27.99;100625.91;41486288;28;19976;-75
2023/04/27 15:54:05;;;;;;;;;;;;;;;25.16;25.06;100611.00;41475010;28;19933;-76
2023/04/27 16:14:05;;;;;;;;;;;;;;;24.37;20.16;100609.19;41487092;28;19956;-73
2023/04/27 16:34:06;;;;;;;;;;;;;;;23.92;23.73;100632.38;41416784;28;19932;-75
2023/04/27 16:54:06;;;;;;;;;;;;;;;23.85;28.53;100636.50;41458659;28;20075;-78
2023/04/27 17:14:06;;;;;;;;;;;;;;;23.65;30.09;100652.22;41454353;28;19929;-78
2023/04/27 17:34:07;;;;;;;;;;;;;;;23.46;32.11;100660.03;41494995;28;19917;-77
2023/04/27 17:54:07;;;;;;;;;;;;;;;23.38;33.23;100689.72;41454805;28;19925;-77
2023/04/27 18:14:08;;;;;;;;;;;;;;;23.33;33.73;100697.22;41480154;28;20004;-78
2023/04/27 18:34:09;;;;;;;;;;;;;;;23.22;33.83;100728.94;41444862;28;20835;-81
2023/04/27 18:54:10;;;;;;;;;;;;;;;23.15;34.69;100744.41;41506351;28;19925;-78
2023/04/27 19:14:11;;;;;;;;;;;;;;;22.97;35.74;100758.13;41528510;28;19929;-76
2023/04/27 19:34:11;;;;;;;;;;;;;;;22.96;35.96;100776.72;41566814;28;19925;-77
2023/04/27 19:54:13;;;;;;;;;;;;;;;22.91;36.28;100770.97;41449147;28;19929;-78
2023/04/27 20:14:14;;;;;;;;;;;;;;;22.84;36.94;100770.63;41489589;28;19929;-77
2023/04/27 20:34:14;;;;;;;;;;;;;;;22.76;37.42;100775.66;41502468;28;19921;-79
2023/04/27 20:54:22;;;;;;;;;;;;;;;22.63;37.41;100781.03;41532422;28;19921;-77
2023/04/27 21:14:23;;;;;;;;;;;;;;;22.60;37.98;100795.31;41540908;28;19928;-77
2023/04/27 21:34:23;;;;;;;;;;;;;;;22.64;38.31;100806.47;41481511;28;19921;-76
2023/04/27 21:54:23;;;;;;;;;;;;;;;22.56;38.34;100820.28;41431144;28;19977;-75
2023/04/27 22:14:25;;;;;;;;;;;;;;;22.46;38.97;100830.69;41462628;28;20328;-78
2023/04/27 22:34:26;;;;;;;;;;;;;;;22.38;38.92;100841.81;41548117;28;20001;-76
2023/04/27 22:54:26;;;;;;;;;;;;;;;22.34;39.16;100853.53;41523878;28;19967;-76
2023/04/27 23:14:28;;;;;;;;;;;;;;;22.28;39.00;100856.63;41492167;28;20277;-76
2023/04/27 23:34:30;;;;;;;;;;;;;;;22.25;39.16;100859.47;41526969;28;19933;-77
2023/04/27 23:54:31;;;;;;;;;;;;;;;22.20;39.03;100857.22;41534169;28;19944;-76
